American Spirit — WDC4277 — position and weather

sailwx.info

Track history (hours):
 
Tides and Currents Weather Stations Pressure Air Temp Water Temp Dewpoint Dewpoint Depression Visibility Wind Speed Wind Dir Waves Ship Positions

American Spirit

Owner: AMERICAN WORKBOATS INC, TERMINAL ISLAND, CA. More information available from US FCC via Universal Licensing System and Coast Guard Vessel Documentation Center.

Last reported at 2014-Dec-04 03:18 UTC. Time now 2014-Dec-23 03:00 UTC.
Position N 33°44' W 118°10'.
Warning: this ship's position is 18 days out of date.

Length 3 m; draft 10 m.

Type: Tug. MMSI: 367022090.

Date/timePositionNaut miles runAvg speedWind from/ knotsBaromVisibWave heightAir tempDewpointWater temp
2014-Dec-04 03:18N 33°44' W 118°10'0 0.2
2014-Dec-04 02:11N 33°44' W 118°11'1 0.9
2014-Dec-04 01:33N 33°44' W 118°11'  
2014-Nov-24 20:23N 33°44' W 118°16'2 1.9
2014-Nov-24 19:14N 33°43' W 118°13'0 0.1
2014-Nov-24 18:24N 33°43' W 118°13'0 0.1
2014-Nov-24 17:33N 33°43' W 118°13'0 0.0
2014-Nov-24 16:33N 33°43' W 118°13'0 0.1
2014-Nov-24 15:34N 33°43' W 118°13'0 0.0
2014-Nov-24 14:26N 33°43' W 118°13'0 0.1
2014-Nov-24 13:33N 33°43' W 118°13'0 0.1
2014-Nov-24 12:33N 33°43' W 118°13'0 0.0
2014-Nov-24 11:33N 33°43' W 118°13'0 0.0
2014-Nov-24 10:33N 33°43' W 118°13'0 0.0
2014-Nov-24 09:33N 33°43' W 118°13'0 0.0
2014-Nov-24 07:11N 33°43' W 118°13'2 2.6
2014-Nov-24 06:16N 33°44' W 118°16'0 0.1
2014-Nov-24 05:06N 33°44' W 118°16'  
Track history (hours):
 
Tides and Currents Weather Stations Pressure Air Temp Water Temp Dewpoint Dewpoint Depression Visibility Wind Speed Wind Dir Waves Ship Positions

American Spirit

Owner: AMERICAN WORKBOATS INC, TERMINAL ISLAND, CA. More information available from US FCC via Universal Licensing System and Coast Guard Vessel Documentation Center.

Last reported at 2014-Dec-04 03:18 UTC. Time now 2014-Dec-23 03:00 UTC.
Position N 33°44' W 118°10'.
Warning: this ship's position is 18 days out of date.

Length 3 m; draft 10 m.

Type: Tug. MMSI: 367022090.

Date/timePositionNaut miles runAvg speedWind from/ knotsBaromVisibWave heightAir tempDewpointWater temp
2014-Dec-04 03:18N 33°44' W 118°10'0 0.2
2014-Dec-04 02:11N 33°44' W 118°11'1 0.9
2014-Dec-04 01:33N 33°44' W 118°11'  
2014-Nov-24 20:23N 33°44' W 118°16'2 1.9
2014-Nov-24 19:14N 33°43' W 118°13'0 0.1
2014-Nov-24 18:24N 33°43' W 118°13'0 0.1
2014-Nov-24 17:33N 33°43' W 118°13'0 0.0
2014-Nov-24 16:33N 33°43' W 118°13'0 0.1
2014-Nov-24 15:34N 33°43' W 118°13'0 0.0
2014-Nov-24 14:26N 33°43' W 118°13'0 0.1
2014-Nov-24 13:33N 33°43' W 118°13'0 0.1
2014-Nov-24 12:33N 33°43' W 118°13'0 0.0
2014-Nov-24 11:33N 33°43' W 118°13'0 0.0
2014-Nov-24 10:33N 33°43' W 118°13'0 0.0
2014-Nov-24 09:33N 33°43' W 118°13'0 0.0
2014-Nov-24 07:11N 33°43' W 118°13'2 2.6
2014-Nov-24 06:16N 33°44' W 118°16'0 0.1
2014-Nov-24 05:06N 33°44' W 118°16'  

Dump ship's entire track history